Terminal Aerodrome Forecast
Issued by NWS Blacksburg, VA

Home | Current Version | Previous Version | Text Only | Print | Product List | Glossary On
Versions: 1 2 3 4 5 6 7 8 9 10 11 12 13 14 15 16 17 18 19 20 21 22 23 24
000
FTUS41 KRNK 312332
TAFDAN
TAF
KDAN 312332Z 0100/0124 00000KT P6SM VCSH SCT050 OVC110
     FM010300 VRB03KT 6SM -SHRA BR SCT025 OVC050
     FM010900 04004KT 5SM -RA BR OVC020=

USA.gov is the U.S. government's official web portal to all federal, state and local government web resources and services.